sensor_id;sensor_type;location;lat;lon;timestamp;pressure;altitude;pressure_sealevel;temperature;humidity
70841;BME280;58465;51.534;9.934;2023-02-18T00:01:35;100423.31;;;10.83;60.04
70841;BME280;58465;51.534;9.934;2023-02-18T00:04:00;100423.53;;;10.69;59.48
70841;BME280;58465;51.534;9.934;2023-02-18T00:06:31;100415.50;;;10.71;60.07
70841;BME280;58465;51.534;9.934;2023-02-18T00:08:57;100421.50;;;10.85;59.67
70841;BME280;58465;51.534;9.934;2023-02-18T00:11:25;100422.22;;;10.95;60.71
70841;BME280;58465;51.534;9.934;2023-02-18T00:13:56;100423.16;;;10.91;60.39
70841;BME280;58465;51.534;9.934;2023-02-18T00:16:23;100417.81;;;10.91;60.88
70841;BME280;58465;51.534;9.934;2023-02-18T00:18:50;100409.72;;;10.95;61.57
70841;BME280;58465;51.534;9.934;2023-02-18T00:21:18;100411.59;;;10.90;61.46
70841;BME280;58465;51.534;9.934;2023-02-18T00:23:43;100409.13;;;10.78;60.87
70841;BME280;58465;51.534;9.934;2023-02-18T00:26:11;100408.16;;;10.82;61.00
70841;BME280;58465;51.534;9.934;2023-02-18T00:28:37;100404.50;;;10.86;60.56
70841;BME280;58465;51.534;9.934;2023-02-18T00:31:11;100400.91;;;10.89;61.19
70841;BME280;58465;51.534;9.934;2023-02-18T00:33:36;100401.78;;;10.91;60.99
70841;BME280;58465;51.534;9.934;2023-02-18T00:36:03;100404.41;;;10.94;61.03
70841;BME280;58465;51.534;9.934;2023-02-18T00:38:29;100395.47;;;10.95;61.23
70841;BME280;58465;51.534;9.934;2023-02-18T00:40:54;100398.94;;;10.98;61.04
70841;BME280;58465;51.534;9.934;2023-02-18T00:43:20;100398.94;;;11.00;60.85
70841;BME280;58465;51.534;9.934;2023-02-18T00:45:45;100395.31;;;11.02;60.74
70841;BME280;58465;51.534;9.934;2023-02-18T00:48:10;100393.50;;;11.04;60.77
70841;BME280;58465;51.534;9.934;2023-02-18T00:50:36;100386.44;;;11.00;60.74
70841;BME280;58465;51.534;9.934;2023-02-18T00:53:01;100385.53;;;11.03;60.71
70841;BME280;58465;51.534;9.934;2023-02-18T00:55:26;100382.88;;;11.01;60.83
70841;BME280;58465;51.534;9.934;2023-02-18T00:57:51;100381.13;;;10.99;60.96
70841;BME280;58465;51.534;9.934;2023-02-18T01:00:17;100382.06;;;10.96;61.12
70841;BME280;58465;51.534;9.934;2023-02-18T01:02:42;100376.72;;;10.96;61.18
70841;BME280;58465;51.534;9.934;2023-02-18T01:05:08;100380.22;;;11.00;61.10
70841;BME280;58465;51.534;9.934;2023-02-18T01:07:33;100383.78;;;11.00;61.08
70841;BME280;58465;51.534;9.934;2023-02-18T01:09:58;100388.25;;;11.00;61.25
70841;BME280;58465;51.534;9.934;2023-02-18T01:12:23;100382.13;;;10.95;61.66
70841;BME280;58465;51.534;9.934;2023-02-18T01:14:49;100376.78;;;10.93;61.58
70841;BME280;58465;51.534;9.934;2023-02-18T01:17:14;100383.00;;;10.95;61.83
70841;BME280;58465;51.534;9.934;2023-02-18T01:19:39;100383.03;;;10.94;61.88
70841;BME280;58465;51.534;9.934;2023-02-18T01:22:04;100381.28;;;10.91;62.20
70841;BME280;58465;51.534;9.934;2023-02-18T01:24:31;100390.19;;;10.90;62.17
70841;BME280;58465;51.534;9.934;2023-02-18T01:26:56;100384.97;;;10.86;62.84
70841;BME280;58465;51.534;9.934;2023-02-18T01:29:21;100381.41;;;10.85;62.87
70841;BME280;58465;51.534;9.934;2023-02-18T01:31:46;100380.53;;;10.85;63.09
70841;BME280;58465;51.534;9.934;2023-02-18T01:34:12;100380.47;;;10.86;63.13
70841;BME280;58465;51.534;9.934;2023-02-18T01:36:37;100384.84;;;10.90;63.14
70841;BME280;58465;51.534;9.934;2023-02-18T01:39:04;100384.97;;;10.84;63.33
70841;BME280;58465;51.534;9.934;2023-02-18T01:41:30;100402.84;;;10.81;63.59
70841;BME280;58465;51.534;9.934;2023-02-18T01:44:25;100404.78;;;10.72;64.56
70841;BME280;58465;51.534;9.934;2023-02-18T01:46:50;100398.72;;;10.61;65.23
70841;BME280;58465;51.534;9.934;2023-02-18T01:49:32;100394.44;;;10.53;65.65
70841;BME280;58465;51.534;9.934;2023-02-18T01:52:02;100389.25;;;10.42;66.83
70841;BME280;58465;51.534;9.934;2023-02-18T01:54:33;100379.50;;;10.39;66.69
70841;BME280;58465;51.534;9.934;2023-02-18T01:57:11;100369.81;;;10.34;67.40
70841;BME280;58465;51.534;9.934;2023-02-18T01:59:39;100374.31;;;10.32;68.08
70841;BME280;58465;51.534;9.934;2023-02-18T02:02:20;100370.69;;;10.36;68.25
70841;BME280;58465;51.534;9.934;2023-02-18T02:04:46;100360.13;;;10.28;69.33
70841;BME280;58465;51.534;9.934;2023-02-18T02:07:12;100358.19;;;10.38;69.02
70841;BME280;58465;51.534;9.934;2023-02-18T02:09:38;100357.19;;;10.44;68.63
70841;BME280;58465;51.534;9.934;2023-02-18T02:12:18;100350.06;;;10.46;69.09
70841;BME280;58465;51.534;9.934;2023-02-18T02:15:03;100349.09;;;10.48;69.63
70841;BME280;58465;51.534;9.934;2023-02-18T02:17:40;100343.66;;;10.54;68.94
70841;BME280;58465;51.534;9.934;2023-02-18T02:20:32;100340.00;;;10.58;69.21
70841;BME280;58465;51.534;9.934;2023-02-18T02:29:03;100342.44;;;10.72;70.16
70841;BME280;58465;51.534;9.934;2023-02-18T02:36:54;100345.72;;;10.86;69.11
70841;BME280;58465;51.534;9.934;2023-02-18T02:39:55;100337.72;;;10.86;69.18
70841;BME280;58465;51.534;9.934;2023-02-18T02:44:53;100339.59;;;10.81;70.05
70841;BME280;58465;51.534;9.934;2023-02-18T02:47:27;100317.28;;;10.85;69.72
70841;BME280;58465;51.534;9.934;2023-02-18T02:50:05;100320.84;;;10.84;70.32
70841;BME280;58465;51.534;9.934;2023-02-18T02:52:39;100316.28;;;10.89;70.10
70841;BME280;58465;51.534;9.934;2023-02-18T02:55:10;100321.59;;;10.91;70.35
70841;BME280;58465;51.534;9.934;2023-02-18T03:00:05;100310.97;;;10.88;71.15
70841;BME280;58465;51.534;9.934;2023-02-18T03:08:13;100309.97;;;10.95;71.42
70841;BME280;58465;51.534;9.934;2023-02-18T03:10:47;100299.22;;;10.96;71.21
70841;BME280;58465;51.534;9.934;2023-02-18T03:13:34;100291.16;;;10.98;71.63
70841;BME280;58465;51.534;9.934;2023-02-18T03:16:34;100294.81;;;10.95;71.57
70841;BME280;58465;51.534;9.934;2023-02-18T03:19:21;100296.69;;;10.89;71.75
70841;BME280;58465;51.534;9.934;2023-02-18T03:21:54;100294.06;;;10.87;71.97
70841;BME280;58465;51.534;9.934;2023-02-18T03:24:28;100288.72;;;10.87;71.98
70841;BME280;58465;51.534;9.934;2023-02-18T03:27:03;100285.25;;;10.82;72.04
70841;BME280;58465;51.534;9.934;2023-02-18T03:29:30;100289.97;;;10.68;73.58
70841;BME280;58465;51.534;9.934;2023-02-18T03:32:02;100285.72;;;10.58;74.79
70841;BME280;58465;51.534;9.934;2023-02-18T03:34:31;100274.28;;;10.51;75.85
70841;BME280;58465;51.534;9.934;2023-02-18T03:36:59;100273.53;;;10.43;75.83
70841;BME280;58465;51.534;9.934;2023-02-18T03:39:27;100266.47;;;10.40;76.23
70841;BME280;58465;51.534;9.934;2023-02-18T03:41:53;100269.94;;;10.46;76.36
70841;BME280;58465;51.534;9.934;2023-02-18T03:44:18;100261.84;;;10.49;76.67
70841;BME280;58465;51.534;9.934;2023-02-18T03:46:44;100256.50;;;10.50;76.84
70841;BME280;58465;51.534;9.934;2023-02-18T03:49:11;100245.75;;;10.53;76.84
70841;BME280;58465;51.534;9.934;2023-02-18T03:51:37;100251.16;;;10.50;76.95
70841;BME280;58465;51.534;9.934;2023-02-18T03:54:02;100249.34;;;10.51;77.14
70841;BME280;58465;51.534;9.934;2023-02-18T03:56:27;100241.38;;;10.49;77.39
70841;BME280;58465;51.534;9.934;2023-02-18T03:58:53;100244.88;;;10.53;77.12
70841;BME280;58465;51.534;9.934;2023-02-18T04:01:18;100235.94;;;10.55;77.37
70841;BME280;58465;51.534;9.934;2023-02-18T04:03:43;100230.56;;;10.57;77.47
70841;BME280;58465;51.534;9.934;2023-02-18T04:06:08;100222.47;;;10.60;77.35
70841;BME280;58465;51.534;9.934;2023-02-18T04:08:34;100206.44;;;10.60;77.60
70841;BME280;58465;51.534;9.934;2023-02-18T04:11:00;100210.03;;;10.59;78.01
70841;BME280;58465;51.534;9.934;2023-02-18T04:13:26;100205.47;;;10.64;78.01
70841;BME280;58465;51.534;9.934;2023-02-18T04:15:51;100213.50;;;10.64;78.08
70841;BME280;58465;51.534;9.934;2023-02-18T04:18:17;100205.47;;;10.64;77.82
70841;BME280;58465;51.534;9.934;2023-02-18T04:20:42;100196.56;;;10.65;77.75
70841;BME280;58465;51.534;9.934;2023-02-18T04:23:08;100203.59;;;10.69;77.96
70841;BME280;58465;51.534;9.934;2023-02-18T04:25:33;100207.13;;;10.69;77.83
70841;BME280;58465;51.534;9.934;2023-02-18T04:27:59;100196.53;;;10.66;78.00
70841;BME280;58465;51.534;9.934;2023-02-18T04:30:24;100198.38;;;10.63;78.49
70841;BME280;58465;51.534;9.934;2023-02-18T04:32:49;100189.47;;;10.64;78.79
70841;BME280;58465;51.534;9.934;2023-02-18T04:35:15;100195.75;;;10.60;79.13
70841;BME280;58465;51.534;9.934;2023-02-18T04:37:40;100187.97;;;10.49;79.68
70841;BME280;58465;51.534;9.934;2023-02-18T04:40:06;100191.69;;;10.40;80.29
70841;BME280;58465;51.534;9.934;2023-02-18T04:42:31;100195.38;;;10.35;80.84
70841;BME280;58465;51.534;9.934;2023-02-18T04:44:57;100191.69;;;10.40;80.40
70841;BME280;58465;51.534;9.934;2023-02-18T04:47:22;100188.16;;;10.38;80.64
70841;BME280;58465;51.534;9.934;2023-02-18T04:49:47;100190.66;;;10.48;80.27
70841;BME280;58465;51.534;9.934;2023-02-18T04:52:13;100180.13;;;10.40;81.03
70841;BME280;58465;51.534;9.934;2023-02-18T04:54:38;100180.13;;;10.40;81.14
70841;BME280;58465;51.534;9.934;2023-02-18T04:57:03;100169.41;;;10.43;81.27
70841;BME280;58465;51.534;9.934;2023-02-18T04:59:28;100164.91;;;10.45;81.04
70841;BME280;58465;51.534;9.934;2023-02-18T05:01:54;100172.84;;;10.48;80.92
70841;BME280;58465;51.534;9.934;2023-02-18T05:04:19;100168.28;;;10.55;80.96
70841;BME280;58465;51.534;9.934;2023-02-18T05:06:44;100166.47;;;10.57;80.99
70841;BME280;58465;51.534;9.934;2023-02-18T05:09:10;100164.63;;;10.59;81.03
70841;BME280;58465;51.534;9.934;2023-02-18T05:11:35;100153.91;;;10.60;81.30
70841;BME280;58465;51.534;9.934;2023-02-18T05:14:00;100151.03;;;10.69;81.21
70841;BME280;58465;51.534;9.934;2023-02-18T05:16:26;100144.81;;;10.69;81.12
70841;BME280;58465;51.534;9.934;2023-02-18T05:18:51;100145.63;;;10.72;80.96
70841;BME280;58465;51.534;9.934;2023-02-18T05:21:16;100131.34;;;10.75;81.10
70841;BME280;58465;51.534;9.934;2023-02-18T05:23:41;100136.41;;;10.87;80.79
70841;BME280;58465;51.534;9.934;2023-02-18T05:26:07;100140.06;;;10.83;80.91
70841;BME280;58465;51.534;9.934;2023-02-18T05:28:32;100124.00;;;10.85;80.80
70841;BME280;58465;51.534;9.934;2023-02-18T05:30:58;100132.97;;;10.82;80.95
70841;BME280;58465;51.534;9.934;2023-02-18T05:33:23;100119.44;;;10.88;80.79
70841;BME280;58465;51.534;9.934;2023-02-18T05:35:48;100123.84;;;10.92;80.41
70841;BME280;58465;51.534;9.934;2023-02-18T05:38:14;100121.00;;;10.98;80.32
70841;BME280;58465;51.534;9.934;2023-02-18T05:40:39;100120.16;;;10.96;80.30
70841;BME280;58465;51.534;9.934;2023-02-18T05:43:04;100118.31;;;11.00;80.19
70841;BME280;58465;51.534;9.934;2023-02-18T05:45:30;100106.66;;;11.02;80.14
70841;BME280;58465;51.534;9.934;2023-02-18T05:47:55;100105.78;;;11.02;79.89
70841;BME280;58465;51.534;9.934;2023-02-18T05:50:20;100102.22;;;11.03;79.94
70841;BME280;58465;51.534;9.934;2023-02-18T05:52:45;100100.31;;;11.06;79.75
70841;BME280;58465;51.534;9.934;2023-02-18T05:55:11;100105.66;;;11.06;79.63
70841;BME280;58465;51.534;9.934;2023-02-18T05:57:36;100111.84;;;11.10;79.54
70841;BME280;58465;51.534;9.934;2023-02-18T06:00:03;100105.56;;;11.11;79.54
70841;BME280;58465;51.534;9.934;2023-02-18T06:02:29;100101.06;;;11.13;79.50
70841;BME280;58465;51.534;9.934;2023-02-18T06:04:54;100100.97;;;11.16;79.32
70841;BME280;58465;51.534;9.934;2023-02-18T06:07:19;100104.50;;;11.18;79.43
70841;BME280;58465;51.534;9.934;2023-02-18T06:09:45;100094.72;;;11.17;79.49
70841;BME280;58465;51.534;9.934;2023-02-18T06:12:11;100092.69;;;11.27;79.91
70841;BME280;58465;51.534;9.934;2023-02-18T06:14:36;100088.28;;;11.26;79.39
70841;BME280;58465;51.534;9.934;2023-02-18T06:17:02;100086.50;;;11.25;79.36
70841;BME280;58465;51.534;9.934;2023-02-18T06:19:27;100086.50;;;11.25;79.19
70841;BME280;58465;51.534;9.934;2023-02-18T06:21:52;100083.16;;;11.16;79.77
70841;BME280;58465;51.534;9.934;2023-02-18T06:24:20;100083.19;;;11.15;79.58
70841;BME280;58465;51.534;9.934;2023-02-18T06:26:45;100080.50;;;11.15;80.05
70841;BME280;58465;51.534;9.934;2023-02-18T06:29:10;100072.56;;;11.13;79.88
70841;BME280;58465;51.534;9.934;2023-02-18T06:31:35;100075.16;;;11.15;80.29
70841;BME280;58465;51.534;9.934;2023-02-18T06:34:01;100072.63;;;11.10;80.49
70841;BME280;58465;51.534;9.934;2023-02-18T06:36:26;100063.69;;;11.11;80.54
70841;BME280;58465;51.534;9.934;2023-02-18T06:38:51;100059.22;;;11.12;80.69
70841;BME280;58465;51.534;9.934;2023-02-18T06:41:18;100061.84;;;11.13;80.62
70841;BME280;58465;51.534;9.934;2023-02-18T06:43:43;100060.09;;;11.12;80.62
70841;BME280;58465;51.534;9.934;2023-02-18T06:46:08;100053.88;;;11.12;80.65
70841;BME280;58465;51.534;9.934;2023-02-18T06:48:33;100057.41;;;11.14;80.95
70841;BME280;58465;51.534;9.934;2023-02-18T06:50:59;100056.34;;;11.20;81.01
70841;BME280;58465;51.534;9.934;2023-02-18T06:53:24;100059.88;;;11.22;81.17
70841;BME280;58465;51.534;9.934;2023-02-18T06:55:49;100046.53;;;11.20;81.21
70841;BME280;58465;51.534;9.934;2023-02-18T06:58:15;100054.59;;;11.19;81.48
70841;BME280;58465;51.534;9.934;2023-02-18T07:00:40;100053.78;;;11.15;81.67
70841;BME280;58465;51.534;9.934;2023-02-18T07:03:06;100053.69;;;11.20;81.64
70841;BME280;58465;51.534;9.934;2023-02-18T07:05:32;100053.84;;;11.13;81.90
70841;BME280;58465;51.534;9.934;2023-02-18T07:07:57;100049.47;;;11.09;82.22
70841;BME280;58465;51.534;9.934;2023-02-18T07:10:23;100037.81;;;11.13;82.21
70841;BME280;58465;51.534;9.934;2023-02-18T07:12:48;100035.94;;;11.15;82.24
70841;BME280;58465;51.534;9.934;2023-02-18T07:15:14;100028.75;;;11.19;82.35
70841;BME280;58465;51.534;9.934;2023-02-18T07:17:39;100017.13;;;11.20;82.01
70841;BME280;58465;51.534;9.934;2023-02-18T07:20:05;100006.63;;;11.12;82.07
70841;BME280;58465;51.534;9.934;2023-02-18T07:22:31;100005.72;;;11.13;82.08
70841;BME280;58465;51.534;9.934;2023-02-18T07:24:56;99998.59;;;11.14;81.84
70841;BME280;58465;51.534;9.934;2023-02-18T07:27:21;100010.09;;;11.16;81.68
70841;BME280;58465;51.534;9.934;2023-02-18T07:29:47;100005.59;;;11.18;81.58
70841;BME280;58465;51.534;9.934;2023-02-18T07:32:14;99999.34;;;11.19;81.72
70841;BME280;58465;51.534;9.934;2023-02-18T07:34:40;100009.91;;;11.24;81.23
70841;BME280;58465;51.534;9.934;2023-02-18T07:37:05;100010.88;;;11.21;81.45
70841;BME280;58465;51.534;9.934;2023-02-18T07:39:34;100008.97;;;11.25;81.22
70841;BME280;58465;51.534;9.934;2023-02-18T07:42:01;100009.75;;;11.30;81.43
70841;BME280;58465;51.534;9.934;2023-02-18T07:44:26;100006.19;;;11.29;81.24
70841;BME280;58465;51.534;9.934;2023-02-18T07:46:52;100007.78;;;11.36;81.13
70841;BME280;58465;51.534;9.934;2023-02-18T07:49:17;99996.97;;;11.41;81.10
70841;BME280;58465;51.534;9.934;2023-02-18T07:51:42;100002.97;;;11.50;80.89
70841;BME280;58465;51.534;9.934;2023-02-18T07:54:10;99992.16;;;11.53;81.24
70841;BME280;58465;51.534;9.934;2023-02-18T07:56:35;99989.63;;;11.49;81.01
70841;BME280;58465;51.534;9.934;2023-02-18T07:59:01;99986.19;;;11.44;81.06
70841;BME280;58465;51.534;9.934;2023-02-18T08:01:27;99981.53;;;11.52;80.79
70841;BME280;58465;51.534;9.934;2023-02-18T08:03:52;99976.91;;;11.57;80.94
70841;BME280;58465;51.534;9.934;2023-02-18T08:06:21;99976.91;;;11.57;80.74
70841;BME280;58465;51.534;9.934;2023-02-18T08:08:49;99982.66;;;11.76;81.13
70841;BME280;58465;51.534;9.934;2023-02-18T08:11:14;99985.34;;;11.74;80.42
70841;BME280;58465;51.534;9.934;2023-02-18T08:13:41;99980.19;;;11.68;80.46
70841;BME280;58465;51.534;9.934;2023-02-18T08:16:06;99981.16;;;11.64;80.65
70841;BME280;58465;51.534;9.934;2023-02-18T08:18:31;99983.28;;;11.53;81.32
70841;BME280;58465;51.534;9.934;2023-02-18T08:20:57;99982.34;;;11.54;81.51
70841;BME280;58465;51.534;9.934;2023-02-18T08:23:22;99985.09;;;11.52;81.52
70841;BME280;58465;51.534;9.934;2023-02-18T08:25:51;99973.94;;;11.68;81.15
70841;BME280;58465;51.534;9.934;2023-02-18T08:28:18;99969.22;;;11.79;80.85
70841;BME280;58465;51.534;9.934;2023-02-18T08:30:47;99967.53;;;11.73;80.63
70841;BME280;58465;51.534;9.934;2023-02-18T08:33:13;99968.38;;;11.77;80.60
70841;BME280;58465;51.534;9.934;2023-02-18T08:35:38;99966.88;;;11.65;80.86
70841;BME280;58465;51.534;9.934;2023-02-18T08:38:04;99972.06;;;11.71;80.70
70841;BME280;58465;51.534;9.934;2023-02-18T08:40:29;99971.00;;;11.78;80.90
70841;BME280;58465;51.534;9.934;2023-02-18T08:42:54;99960.38;;;11.74;81.15
70841;BME280;58465;51.534;9.934;2023-02-18T08:45:20;99961.88;;;11.85;80.95
70841;BME280;58465;51.534;9.934;2023-02-18T08:47:45;99966.31;;;11.86;80.77
70841;BME280;58465;51.534;9.934;2023-02-18T08:50:10;99957.16;;;11.94;80.97
70841;BME280;58465;51.534;9.934;2023-02-18T08:52:36;99961.56;;;11.96;80.44
70841;BME280;58465;51.534;9.934;2023-02-18T08:55:03;99951.09;;;11.88;81.27
70841;BME280;58465;51.534;9.934;2023-02-18T08:57:28;99950.16;;;11.89;81.02
70841;BME280;58465;51.534;9.934;2023-02-18T08:59:53;99944.78;;;11.91;81.13
70841;BME280;58465;51.534;9.934;2023-02-18T09:02:19;99940.81;;;12.03;81.08
70841;BME280;58465;51.534;9.934;2023-02-18T09:04:44;99940.38;;;11.88;80.89
70841;BME280;58465;51.534;9.934;2023-02-18T09:07:10;99940.97;;;11.67;81.53
70841;BME280;58465;51.534;9.934;2023-02-18T09:09:35;99947.88;;;11.74;81.46
70841;BME280;58465;51.534;9.934;2023-02-18T09:12:00;99954.75;;;11.84;81.37
70841;BME280;58465;51.534;9.934;2023-02-18T09:14:25;99950.16;;;11.89;81.14
70841;BME280;58465;51.534;9.934;2023-02-18T09:16:51;99954.88;;;11.81;81.23
70841;BME280;58465;51.534;9.934;2023-02-18T09:19:17;99956.84;;;12.04;80.70
70841;BME280;58465;51.534;9.934;2023-02-18T09:21:43;99952.44;;;12.02;80.36
70841;BME280;58465;51.534;9.934;2023-02-18T09:24:11;99948.50;;;11.85;80.81
70841;BME280;58465;51.534;9.934;2023-02-18T09:26:37;99949.66;;;11.75;81.54
70841;BME280;58465;51.534;9.934;2023-02-18T09:29:03;99936.38;;;11.72;81.98
70841;BME280;58465;51.534;9.934;2023-02-18T09:31:28;99930.19;;;11.70;82.02
70841;BME280;58465;51.534;9.934;2023-02-18T09:34:01;99946.97;;;11.77;82.01
70841;BME280;58465;51.534;9.934;2023-02-18T09:36:27;99932.94;;;11.67;82.01
70841;BME280;58465;51.534;9.934;2023-02-18T09:38:53;99934.38;;;11.80;81.77
70841;BME280;58465;51.534;9.934;2023-02-18T09:41:47;99932.31;;;11.90;81.44
70841;BME280;58465;51.534;9.934;2023-02-18T09:44:15;99933.94;;;11.94;80.75
70841;BME280;58465;51.534;9.934;2023-02-18T09:46:53;99950.53;;;12.07;80.57
70841;BME280;58465;51.534;9.934;2023-02-18T09:49:22;99943.44;;;12.06;80.57
70841;BME280;58465;51.534;9.934;2023-02-18T09:51:49;99944.59;;;11.97;80.97
70841;BME280;58465;51.534;9.934;2023-02-18T09:54:17;99941.16;;;11.92;81.12
70841;BME280;58465;51.534;9.934;2023-02-18T09:56:44;99943.94;;;11.89;81.71
70841;BME280;58465;51.534;9.934;2023-02-18T09:59:14;99947.50;;;11.89;81.34
70841;BME280;58465;51.534;9.934;2023-02-18T10:01:40;99953.06;;;12.11;81.44
70841;BME280;58465;51.534;9.934;2023-02-18T10:04:16;99953.84;;;12.15;81.05
70841;BME280;58465;51.534;9.934;2023-02-18T10:06:45;99947.63;;;12.42;80.10
70841;BME280;58465;51.534;9.934;2023-02-18T10:09:19;99944.63;;;12.25;79.17
70841;BME280;58465;51.534;9.934;2023-02-18T10:11:49;99945.41;;;11.99;80.49
70841;BME280;58465;51.534;9.934;2023-02-18T10:14:15;99933.72;;;12.02;80.73
70841;BME280;58465;51.534;9.934;2023-02-18T10:16:43;99929.63;;;11.90;81.01
70841;BME280;58465;51.534;9.934;2023-02-18T10:19:32;99919.97;;;11.84;79.63
70841;BME280;58465;51.534;9.934;2023-02-18T10:22:01;99926.03;;;11.91;79.50
70841;BME280;58465;51.534;9.934;2023-02-18T10:26:58;99923.81;;;12.05;78.90
70841;BME280;58465;51.534;9.934;2023-02-18T10:29:25;99912.69;;;12.19;77.87
70841;BME280;58465;51.534;9.934;2023-02-18T10:32:07;99910.22;;;12.11;77.30
70841;BME280;58465;51.534;9.934;2023-02-18T10:34:50;99911.47;;;12.29;77.11
70841;BME280;58465;51.534;9.934;2023-02-18T10:37:30;99897.34;;;12.24;76.77
70841;BME280;58465;51.534;9.934;2023-02-18T10:43:24;99904.41;;;12.26;76.21
70841;BME280;58465;51.534;9.934;2023-02-18T10:49:05;99896.50;;;12.50;75.37
70841;BME280;58465;51.534;9.934;2023-02-18T10:51:36;99888.16;;;12.85;74.73
70841;BME280;58465;51.534;9.934;2023-02-18T10:54:05;99885.59;;;12.82;74.41
70841;BME280;58465;51.534;9.934;2023-02-18T10:56:39;99878.28;;;12.61;74.50
70841;BME280;58465;51.534;9.934;2023-02-18T10:59:11;99881.09;;;12.83;73.60
70841;BME280;58465;51.534;9.934;2023-02-18T11:01:37;99875.84;;;13.06;72.89
70841;BME280;58465;51.534;9.934;2023-02-18T11:04:25;99878.03;;;13.20;71.61
70841;BME280;58465;51.534;9.934;2023-02-18T11:06:52;99860.25;;;12.91;71.67
70841;BME280;58465;51.534;9.934;2023-02-18T11:09:26;99871.44;;;13.04;71.88
70841;BME280;58465;51.534;9.934;2023-02-18T11:11:59;99876.16;;;12.97;72.59
70841;BME280;58465;51.534;9.934;2023-02-18T11:14:43;99889.75;;;12.91;73.31
70841;BME280;58465;51.534;9.934;2023-02-18T11:17:17;99881.75;;;12.89;72.42
70841;BME280;58465;51.534;9.934;2023-02-18T11:19:51;99894.38;;;12.59;73.97
70841;BME280;58465;51.534;9.934;2023-02-18T11:22:27;99886.56;;;12.53;73.50
70841;BME280;58465;51.534;9.934;2023-02-18T11:24:54;99879.28;;;12.58;73.00
70841;BME280;58465;51.534;9.934;2023-02-18T11:30:06;99886.97;;;12.41;72.61
70841;BME280;58465;51.534;9.934;2023-02-18T11:32:39;99887.56;;;12.23;72.79
70841;BME280;58465;51.534;9.934;2023-02-18T11:35:05;99897.66;;;12.13;73.04
70841;BME280;58465;51.534;9.934;2023-02-18T11:37:32;99896.16;;;12.05;72.38
70841;BME280;58465;51.534;9.934;2023-02-18T11:39:59;99895.59;;;11.94;72.04
70841;BME280;58465;51.534;9.934;2023-02-18T11:42:26;99909.78;;;11.97;72.21
70841;BME280;58465;51.534;9.934;2023-02-18T11:44:54;99897.84;;;12.09;71.87
70841;BME280;58465;51.534;9.934;2023-02-18T11:47:24;99899.75;;;12.04;72.03
70841;BME280;58465;51.534;9.934;2023-02-18T11:50:14;99908.34;;;12.15;71.16
70841;BME280;58465;51.534;9.934;2023-02-18T11:52:43;99897.28;;;12.25;70.29
70841;BME280;58465;51.534;9.934;2023-02-18T11:55:25;99884.16;;;12.18;69.86
70841;BME280;58465;51.534;9.934;2023-02-18T11:58:00;99889.94;;;12.32;69.70
70841;BME280;58465;51.534;9.934;2023-02-18T12:00:44;99889.72;;;12.40;69.54
70841;BME280;58465;51.534;9.934;2023-02-18T12:06:32;99869.31;;;12.62;69.32
70841;BME280;58465;51.534;9.934;2023-02-18T12:09:16;99889.56;;;12.71;68.58
70841;BME280;58465;51.534;9.934;2023-02-18T12:11:47;99891.97;;;12.52;68.04
70841;BME280;58465;51.534;9.934;2023-02-18T12:14:17;99909.16;;;12.45;67.77
70841;BME280;58465;51.534;9.934;2023-02-18T12:19:56;99895.63;;;12.21;68.64
70841;BME280;58465;51.534;9.934;2023-02-18T12:22:40;99912.09;;;12.09;68.75
70841;BME280;58465;51.534;9.934;2023-02-18T12:28:18;99907.41;;;12.16;69.29
70841;BME280;58465;51.534;9.934;2023-02-18T12:34:04;99893.13;;;12.17;69.10
70841;BME280;58465;51.534;9.934;2023-02-18T12:36:45;99898.03;;;12.58;67.92
70841;BME280;58465;51.534;9.934;2023-02-18T12:40:06;99914.19;;;12.82;66.90
70841;BME280;58465;51.534;9.934;2023-02-18T12:42:51;99899.88;;;12.56;67.21
70841;BME280;58465;51.534;9.934;2023-02-18T12:48:12;99902.69;;;12.24;68.87
70841;BME280;58465;51.534;9.934;2023-02-18T12:54:17;99900.09;;;12.21;69.08
70841;BME280;58465;51.534;9.934;2023-02-18T12:56:56;99898.25;;;12.23;69.09
70841;BME280;58465;51.534;9.934;2023-02-18T13:05:03;99899.94;;;12.27;69.01
70841;BME280;58465;51.534;9.934;2023-02-18T13:13:03;99898.19;;;12.26;69.54
70841;BME280;58465;51.534;9.934;2023-02-18T13:18:00;99880.06;;;12.34;68.99
70841;BME280;58465;51.534;9.934;2023-02-18T13:20:37;99896.66;;;12.45;68.84
70841;BME280;58465;51.534;9.934;2023-02-18T13:23:05;99888.28;;;12.28;68.86
70841;BME280;58465;51.534;9.934;2023-02-18T13:25:36;99891.72;;;12.04;69.56
70841;BME280;58465;51.534;9.934;2023-02-18T13:28:19;99901.09;;;12.18;69.74
70841;BME280;58465;51.534;9.934;2023-02-18T13:30:56;99891.72;;;12.32;69.27
70841;BME280;58465;51.534;9.934;2023-02-18T13:39:00;99911.78;;;12.20;70.27
70841;BME280;58465;51.534;9.934;2023-02-18T13:41:26;99917.53;;;12.06;70.85
70841;BME280;58465;51.534;9.934;2023-02-18T13:43:52;99899.63;;;12.08;71.07
70841;BME280;58465;51.534;9.934;2023-02-18T13:46:19;99907.94;;;11.99;71.45
70841;BME280;58465;51.534;9.934;2023-02-18T13:54:00;99915.19;;;11.96;72.80
70841;BME280;58465;51.534;9.934;2023-02-18T13:56:29;99928.75;;;11.89;72.48
70841;BME280;58465;51.534;9.934;2023-02-18T13:59:05;99917.44;;;12.09;72.12
70841;BME280;58465;51.534;9.934;2023-02-18T14:01:44;99911.84;;;12.17;71.65
70841;BME280;58465;51.534;9.934;2023-02-18T14:07:26;99918.31;;;12.10;71.99
70841;BME280;58465;51.534;9.934;2023-02-18T14:09:57;99920.56;;;12.23;71.23
70841;BME280;58465;51.534;9.934;2023-02-18T14:12:41;99915.19;;;12.23;70.89
70841;BME280;58465;51.534;9.934;2023-02-18T14:25:50;99920.75;;;12.45;69.70
70841;BME280;58465;51.534;9.934;2023-02-18T14:33:40;99933.41;;;12.40;69.17
70841;BME280;58465;51.534;9.934;2023-02-18T14:39:31;99931.19;;;12.26;69.40
70841;BME280;58465;51.534;9.934;2023-02-18T14:42:12;99920.19;;;12.36;68.64
70841;BME280;58465;51.534;9.934;2023-02-18T14:45:02;99920.03;;;12.40;68.47